Terminal Aerodrome Forecast
Issued by NWS Pendleton, OR

Home | Current Version | Previous Version | Text Only | Print | Product List | Glossary On
Versions: 1 2 3 4 5 6 7 8 9 10 11 12 13 14 15
000
FTUS46 KPDT 222300
TAFPDT
TAF
KPDT 222320Z 2300/2324 31011G16KT P6SM VCSH BKN070
      TEMPO 2300/2304 -TSRA BKN050CB
     FM230500 27008KT P6SM BKN080
     FM231000 VRB05KT P6SM SCT080
     FM231900 31009KT P6SM SKC=

USA.gov is the U.S. government's official web portal to all federal, state and local government web resources and services.